sensor_id;sensor_type;location;lat;lon;timestamp;P1;durP1;ratioP1;P2;durP2;ratioP2
40945;SDS011;55635;50.264;11.918;2023-03-17T00:02:35;8.15;;;5.03;;
40945;SDS011;55635;50.264;11.918;2023-03-17T00:05:23;9.25;;;4.95;;
40945;SDS011;55635;50.264;11.918;2023-03-17T00:08:11;10.10;;;5.40;;
40945;SDS011;55635;50.264;11.918;2023-03-17T00:11:16;6.20;;;3.97;;
40945;SDS011;55635;50.264;11.918;2023-03-17T00:13:57;5.15;;;4.13;;
40945;SDS011;55635;50.264;11.918;2023-03-17T00:16:46;12.32;;;5.05;;
40945;SDS011;55635;50.264;11.918;2023-03-17T00:19:29;7.78;;;4.90;;
40945;SDS011;55635;50.264;11.918;2023-03-17T00:22:15;9.15;;;4.78;;
40945;SDS011;55635;50.264;11.918;2023-03-17T00:24:57;9.50;;;4.00;;
40945;SDS011;55635;50.264;11.918;2023-03-17T00:27:38;8.57;;;4.45;;
40945;SDS011;55635;50.264;11.918;2023-03-17T00:30:20;10.68;;;4.38;;
40945;SDS011;55635;50.264;11.918;2023-03-17T00:33:03;6.70;;;3.95;;
40945;SDS011;55635;50.264;11.918;2023-03-17T00:35:45;5.35;;;4.28;;
40945;SDS011;55635;50.264;11.918;2023-03-17T00:38:26;8.85;;;4.78;;
40945;SDS011;55635;50.264;11.918;2023-03-17T00:41:11;7.75;;;4.65;;
40945;SDS011;55635;50.264;11.918;2023-03-17T00:43:53;4.97;;;4.05;;
40945;SDS011;55635;50.264;11.918;2023-03-17T00:46:34;6.63;;;4.47;;
40945;SDS011;55635;50.264;11.918;2023-03-17T00:49:18;5.85;;;4.28;;
40945;SDS011;55635;50.264;11.918;2023-03-17T00:52:02;6.35;;;4.13;;
40945;SDS011;55635;50.264;11.918;2023-03-17T00:54:43;6.82;;;4.30;;
40945;SDS011;55635;50.264;11.918;2023-03-17T00:57:25;7.47;;;4.18;;
40945;SDS011;55635;50.264;11.918;2023-03-17T01:00:26;6.80;;;4.05;;
40945;SDS011;55635;50.264;11.918;2023-03-17T01:03:10;9.02;;;3.90;;
40945;SDS011;55635;50.264;11.918;2023-03-17T01:05:52;6.13;;;4.32;;
40945;SDS011;55635;50.264;11.918;2023-03-17T01:08:36;5.55;;;3.65;;
40945;SDS011;55635;50.264;11.918;2023-03-17T01:11:21;5.88;;;3.60;;
40945;SDS011;55635;50.264;11.918;2023-03-17T01:14:03;9.88;;;3.90;;
40945;SDS011;55635;50.264;11.918;2023-03-17T01:16:44;8.30;;;4.47;;
40945;SDS011;55635;50.264;11.918;2023-03-17T01:19:26;7.53;;;4.00;;
40945;SDS011;55635;50.264;11.918;2023-03-17T01:22:07;5.80;;;4.25;;
40945;SDS011;55635;50.264;11.918;2023-03-17T01:24:48;5.75;;;4.35;;
40945;SDS011;55635;50.264;11.918;2023-03-17T01:27:33;5.10;;;4.03;;
40945;SDS011;55635;50.264;11.918;2023-03-17T01:33:02;12.35;;;4.45;;
40945;SDS011;55635;50.264;11.918;2023-03-17T01:35:45;9.07;;;4.13;;
40945;SDS011;55635;50.264;11.918;2023-03-17T01:38:26;9.27;;;4.53;;
40945;SDS011;55635;50.264;11.918;2023-03-17T01:41:07;8.18;;;4.25;;
40945;SDS011;55635;50.264;11.918;2023-03-17T01:43:49;9.40;;;4.22;;
40945;SDS011;55635;50.264;11.918;2023-03-17T01:46:32;5.15;;;4.18;;
40945;SDS011;55635;50.264;11.918;2023-03-17T01:52:15;5.43;;;3.80;;
40945;SDS011;55635;50.264;11.918;2023-03-17T01:55:01;5.65;;;4.45;;
40945;SDS011;55635;50.264;11.918;2023-03-17T01:57:51;5.70;;;4.25;;
40945;SDS011;55635;50.264;11.918;2023-03-17T02:00:34;8.18;;;4.38;;
40945;SDS011;55635;50.264;11.918;2023-03-17T02:03:16;8.52;;;5.00;;
40945;SDS011;55635;50.264;11.918;2023-03-17T02:05:57;7.60;;;4.57;;
40945;SDS011;55635;50.264;11.918;2023-03-17T02:08:40;7.38;;;4.43;;
40945;SDS011;55635;50.264;11.918;2023-03-17T02:11:23;8.02;;;4.75;;
40945;SDS011;55635;50.264;11.918;2023-03-17T02:14:05;9.40;;;5.18;;
40945;SDS011;55635;50.264;11.918;2023-03-17T02:16:46;8.10;;;4.40;;
40945;SDS011;55635;50.264;11.918;2023-03-17T02:19:29;5.43;;;4.20;;
40945;SDS011;55635;50.264;11.918;2023-03-17T02:22:10;8.93;;;4.40;;
40945;SDS011;55635;50.264;11.918;2023-03-17T02:24:54;6.50;;;4.78;;
40945;SDS011;55635;50.264;11.918;2023-03-17T02:27:38;6.05;;;4.03;;
40945;SDS011;55635;50.264;11.918;2023-03-17T02:30:25;6.43;;;3.88;;
40945;SDS011;55635;50.264;11.918;2023-03-17T02:33:07;8.82;;;4.75;;
40945;SDS011;55635;50.264;11.918;2023-03-17T02:35:49;8.50;;;4.70;;
40945;SDS011;55635;50.264;11.918;2023-03-17T02:38:30;5.97;;;4.50;;
40945;SDS011;55635;50.264;11.918;2023-03-17T02:41:13;8.50;;;4.40;;
40945;SDS011;55635;50.264;11.918;2023-03-17T02:43:56;8.50;;;4.43;;
40945;SDS011;55635;50.264;11.918;2023-03-17T02:46:37;6.53;;;4.47;;
40945;SDS011;55635;50.264;11.918;2023-03-17T02:49:18;7.93;;;4.18;;
40945;SDS011;55635;50.264;11.918;2023-03-17T02:51:59;6.53;;;4.28;;
40945;SDS011;55635;50.264;11.918;2023-03-17T02:54:41;6.70;;;4.15;;
40945;SDS011;55635;50.264;11.918;2023-03-17T02:57:22;7.82;;;4.13;;
40945;SDS011;55635;50.264;11.918;2023-03-17T03:00:04;8.07;;;4.45;;
40945;SDS011;55635;50.264;11.918;2023-03-17T03:02:49;6.60;;;4.97;;
40945;SDS011;55635;50.264;11.918;2023-03-17T03:05:30;7.10;;;4.68;;
40945;SDS011;55635;50.264;11.918;2023-03-17T03:08:12;10.80;;;4.75;;
40945;SDS011;55635;50.264;11.918;2023-03-17T03:10:53;5.55;;;3.88;;
40945;SDS011;55635;50.264;11.918;2023-03-17T03:13:34;9.73;;;4.53;;
40945;SDS011;55635;50.264;11.918;2023-03-17T03:16:16;6.00;;;4.03;;
40945;SDS011;55635;50.264;11.918;2023-03-17T03:18:57;6.03;;;4.82;;
40945;SDS011;55635;50.264;11.918;2023-03-17T03:21:39;6.15;;;4.65;;
40945;SDS011;55635;50.264;11.918;2023-03-17T03:24:20;8.68;;;4.50;;
40945;SDS011;55635;50.264;11.918;2023-03-17T03:27:02;6.63;;;4.28;;
40945;SDS011;55635;50.264;11.918;2023-03-17T03:29:43;8.90;;;4.18;;
40945;SDS011;55635;50.264;11.918;2023-03-17T03:32:24;9.10;;;4.60;;
40945;SDS011;55635;50.264;11.918;2023-03-17T03:35:06;7.90;;;4.50;;
40945;SDS011;55635;50.264;11.918;2023-03-17T03:37:48;6.63;;;3.95;;
40945;SDS011;55635;50.264;11.918;2023-03-17T03:40:29;4.95;;;4.10;;
40945;SDS011;55635;50.264;11.918;2023-03-17T03:43:11;9.65;;;4.93;;
40945;SDS011;55635;50.264;11.918;2023-03-17T03:45:52;8.70;;;4.57;;
40945;SDS011;55635;50.264;11.918;2023-03-17T03:48:33;7.28;;;4.07;;
40945;SDS011;55635;50.264;11.918;2023-03-17T03:51:15;6.43;;;4.60;;
40945;SDS011;55635;50.264;11.918;2023-03-17T03:53:56;8.75;;;4.18;;
40945;SDS011;55635;50.264;11.918;2023-03-17T03:56:37;7.82;;;4.88;;
40945;SDS011;55635;50.264;11.918;2023-03-17T03:59:18;8.18;;;4.60;;
40945;SDS011;55635;50.264;11.918;2023-03-17T04:02:00;9.43;;;4.82;;
40945;SDS011;55635;50.264;11.918;2023-03-17T04:04:41;6.80;;;4.28;;
40945;SDS011;55635;50.264;11.918;2023-03-17T04:07:22;7.72;;;4.30;;
40945;SDS011;55635;50.264;11.918;2023-03-17T04:10:04;9.07;;;4.10;;
40945;SDS011;55635;50.264;11.918;2023-03-17T04:12:46;9.38;;;4.28;;
40945;SDS011;55635;50.264;11.918;2023-03-17T04:15:27;5.75;;;3.55;;
40945;SDS011;55635;50.264;11.918;2023-03-17T04:18:08;6.63;;;4.10;;
40945;SDS011;55635;50.264;11.918;2023-03-17T04:20:50;6.05;;;3.90;;
40945;SDS011;55635;50.264;11.918;2023-03-17T04:23:31;7.68;;;4.35;;
40945;SDS011;55635;50.264;11.918;2023-03-17T04:26:12;7.10;;;4.22;;
40945;SDS011;55635;50.264;11.918;2023-03-17T04:28:53;6.07;;;3.80;;
40945;SDS011;55635;50.264;11.918;2023-03-17T04:31:34;6.75;;;4.63;;
40945;SDS011;55635;50.264;11.918;2023-03-17T04:34:16;7.75;;;3.90;;
40945;SDS011;55635;50.264;11.918;2023-03-17T04:36:58;7.72;;;3.85;;
40945;SDS011;55635;50.264;11.918;2023-03-17T04:39:40;6.60;;;3.60;;
40945;SDS011;55635;50.264;11.918;2023-03-17T04:42:21;7.15;;;4.20;;
40945;SDS011;55635;50.264;11.918;2023-03-17T04:45:03;6.28;;;3.40;;
40945;SDS011;55635;50.264;11.918;2023-03-17T04:47:46;6.43;;;3.75;;
40945;SDS011;55635;50.264;11.918;2023-03-17T04:50:26;9.32;;;4.15;;
40945;SDS011;55635;50.264;11.918;2023-03-17T04:53:07;6.65;;;3.80;;
40945;SDS011;55635;50.264;11.918;2023-03-17T04:55:49;9.32;;;4.55;;
40945;SDS011;55635;50.264;11.918;2023-03-17T04:58:33;6.22;;;3.88;;
40945;SDS011;55635;50.264;11.918;2023-03-17T05:01:14;7.72;;;3.75;;
40945;SDS011;55635;50.264;11.918;2023-03-17T05:03:55;8.20;;;3.78;;
40945;SDS011;55635;50.264;11.918;2023-03-17T05:06:36;13.50;;;4.00;;
40945;SDS011;55635;50.264;11.918;2023-03-17T05:09:17;6.13;;;3.63;;
40945;SDS011;55635;50.264;11.918;2023-03-17T05:11:58;5.38;;;3.78;;
40945;SDS011;55635;50.264;11.918;2023-03-17T05:14:39;5.95;;;3.50;;
40945;SDS011;55635;50.264;11.918;2023-03-17T05:17:20;5.60;;;3.40;;
40945;SDS011;55635;50.264;11.918;2023-03-17T05:20:02;7.10;;;3.92;;
40945;SDS011;55635;50.264;11.918;2023-03-17T05:22:43;6.10;;;3.70;;
40945;SDS011;55635;50.264;11.918;2023-03-17T05:25:25;8.18;;;3.70;;
40945;SDS011;55635;50.264;11.918;2023-03-17T05:28:07;7.13;;;4.35;;
40945;SDS011;55635;50.264;11.918;2023-03-17T05:30:49;7.28;;;4.10;;
40945;SDS011;55635;50.264;11.918;2023-03-17T05:33:31;9.75;;;4.28;;
40945;SDS011;55635;50.264;11.918;2023-03-17T05:36:12;9.30;;;3.88;;
40945;SDS011;55635;50.264;11.918;2023-03-17T05:38:53;6.63;;;3.85;;
40945;SDS011;55635;50.264;11.918;2023-03-17T05:41:34;6.38;;;3.70;;
40945;SDS011;55635;50.264;11.918;2023-03-17T05:44:15;5.78;;;3.33;;
40945;SDS011;55635;50.264;11.918;2023-03-17T05:46:57;8.68;;;3.80;;
40945;SDS011;55635;50.264;11.918;2023-03-17T05:49:38;6.18;;;3.45;;
40945;SDS011;55635;50.264;11.918;2023-03-17T05:52:19;7.05;;;3.40;;
40945;SDS011;55635;50.264;11.918;2023-03-17T05:55:01;5.57;;;3.63;;
40945;SDS011;55635;50.264;11.918;2023-03-17T05:57:43;10.60;;;5.43;;
40945;SDS011;55635;50.264;11.918;2023-03-17T06:00:24;5.68;;;3.05;;
40945;SDS011;55635;50.264;11.918;2023-03-17T06:03:08;5.70;;;3.33;;
40945;SDS011;55635;50.264;11.918;2023-03-17T06:05:49;7.13;;;3.83;;
40945;SDS011;55635;50.264;11.918;2023-03-17T06:08:30;9.07;;;3.78;;
40945;SDS011;55635;50.264;11.918;2023-03-17T06:11:11;5.60;;;3.50;;
40945;SDS011;55635;50.264;11.918;2023-03-17T06:13:52;5.22;;;3.17;;
40945;SDS011;55635;50.264;11.918;2023-03-17T06:16:33;7.25;;;4.25;;
40945;SDS011;55635;50.264;11.918;2023-03-17T06:19:18;4.22;;;3.00;;
40945;SDS011;55635;50.264;11.918;2023-03-17T06:22:00;6.50;;;3.47;;
40945;SDS011;55635;50.264;11.918;2023-03-17T06:24:40;7.53;;;3.75;;
40945;SDS011;55635;50.264;11.918;2023-03-17T06:27:21;5.05;;;3.08;;
40945;SDS011;55635;50.264;11.918;2023-03-17T06:30:03;6.10;;;3.60;;
40945;SDS011;55635;50.264;11.918;2023-03-17T06:32:47;7.90;;;3.65;;
40945;SDS011;55635;50.264;11.918;2023-03-17T06:35:28;5.82;;;2.95;;
40945;SDS011;55635;50.264;11.918;2023-03-17T06:38:10;6.50;;;3.33;;
40945;SDS011;55635;50.264;11.918;2023-03-17T06:40:52;4.68;;;2.88;;
40945;SDS011;55635;50.264;11.918;2023-03-17T06:43:33;5.43;;;3.38;;
40945;SDS011;55635;50.264;11.918;2023-03-17T06:46:15;6.43;;;3.67;;
40945;SDS011;55635;50.264;11.918;2023-03-17T06:48:59;6.55;;;2.92;;
40945;SDS011;55635;50.264;11.918;2023-03-17T06:51:40;5.15;;;3.53;;
40945;SDS011;55635;50.264;11.918;2023-03-17T06:54:21;4.28;;;2.65;;
40945;SDS011;55635;50.264;11.918;2023-03-17T06:57:04;6.00;;;3.17;;
40945;SDS011;55635;50.264;11.918;2023-03-17T06:59:45;4.90;;;3.05;;
40945;SDS011;55635;50.264;11.918;2023-03-17T07:02:26;4.50;;;2.80;;
40945;SDS011;55635;50.264;11.918;2023-03-17T07:05:07;4.85;;;3.22;;
40945;SDS011;55635;50.264;11.918;2023-03-17T07:07:49;8.30;;;3.40;;
40945;SDS011;55635;50.264;11.918;2023-03-17T07:10:29;6.85;;;3.17;;
40945;SDS011;55635;50.264;11.918;2023-03-17T07:13:11;9.65;;;3.90;;
40945;SDS011;55635;50.264;11.918;2023-03-17T07:15:52;4.80;;;3.10;;
40945;SDS011;55635;50.264;11.918;2023-03-17T07:18:34;6.20;;;3.17;;
40945;SDS011;55635;50.264;11.918;2023-03-17T07:21:15;4.60;;;3.20;;
40945;SDS011;55635;50.264;11.918;2023-03-17T07:23:56;4.65;;;2.50;;
40945;SDS011;55635;50.264;11.918;2023-03-17T07:26:37;4.63;;;3.33;;
40945;SDS011;55635;50.264;11.918;2023-03-17T07:29:18;4.45;;;2.97;;
40945;SDS011;55635;50.264;11.918;2023-03-17T07:32:00;5.15;;;2.83;;
40945;SDS011;55635;50.264;11.918;2023-03-17T07:34:41;6.97;;;3.03;;
40945;SDS011;55635;50.264;11.918;2023-03-17T07:37:22;4.28;;;3.00;;
40945;SDS011;55635;50.264;11.918;2023-03-17T07:40:04;3.55;;;2.35;;
40945;SDS011;55635;50.264;11.918;2023-03-17T07:42:45;7.35;;;3.00;;
40945;SDS011;55635;50.264;11.918;2023-03-17T07:45:26;5.93;;;2.90;;
40945;SDS011;55635;50.264;11.918;2023-03-17T07:48:07;8.57;;;3.30;;
40945;SDS011;55635;50.264;11.918;2023-03-17T07:50:49;3.83;;;2.55;;
40945;SDS011;55635;50.264;11.918;2023-03-17T07:53:30;3.90;;;2.78;;
40945;SDS011;55635;50.264;11.918;2023-03-17T07:56:11;7.50;;;2.42;;
40945;SDS011;55635;50.264;11.918;2023-03-17T07:58:53;6.90;;;2.80;;
40945;SDS011;55635;50.264;11.918;2023-03-17T08:01:34;6.55;;;3.10;;
40945;SDS011;55635;50.264;11.918;2023-03-17T08:04:15;4.63;;;2.92;;
40945;SDS011;55635;50.264;11.918;2023-03-17T08:06:55;5.03;;;3.10;;
40945;SDS011;55635;50.264;11.918;2023-03-17T08:09:37;6.28;;;2.90;;
40945;SDS011;55635;50.264;11.918;2023-03-17T08:12:18;8.07;;;2.70;;
40945;SDS011;55635;50.264;11.918;2023-03-17T08:14:59;4.85;;;3.25;;
40945;SDS011;55635;50.264;11.918;2023-03-17T08:17:40;3.58;;;3.10;;
40945;SDS011;55635;50.264;11.918;2023-03-17T08:20:21;6.88;;;3.40;;
40945;SDS011;55635;50.264;11.918;2023-03-17T08:23:02;6.50;;;3.40;;
40945;SDS011;55635;50.264;11.918;2023-03-17T08:25:43;4.22;;;2.83;;
40945;SDS011;55635;50.264;11.918;2023-03-17T08:28:24;3.75;;;2.78;;
40945;SDS011;55635;50.264;11.918;2023-03-17T08:31:10;6.15;;;2.85;;
40945;SDS011;55635;50.264;11.918;2023-03-17T08:34:01;4.55;;;2.97;;
40945;SDS011;55635;50.264;11.918;2023-03-17T08:36:43;4.28;;;2.65;;
40945;SDS011;55635;50.264;11.918;2023-03-17T08:39:25;4.78;;;3.15;;
40945;SDS011;55635;50.264;11.918;2023-03-17T08:42:06;6.85;;;3.33;;
40945;SDS011;55635;50.264;11.918;2023-03-17T08:44:47;4.25;;;2.70;;
40945;SDS011;55635;50.264;11.918;2023-03-17T08:47:28;6.80;;;3.10;;
40945;SDS011;55635;50.264;11.918;2023-03-17T08:50:13;3.53;;;2.80;;
40945;SDS011;55635;50.264;11.918;2023-03-17T08:53:01;5.63;;;2.70;;
40945;SDS011;55635;50.264;11.918;2023-03-17T08:55:42;4.45;;;2.63;;
40945;SDS011;55635;50.264;11.918;2023-03-17T08:58:23;7.25;;;3.05;;
40945;SDS011;55635;50.264;11.918;2023-03-17T09:01:04;3.08;;;2.78;;
40945;SDS011;55635;50.264;11.918;2023-03-17T09:03:46;4.75;;;2.67;;
40945;SDS011;55635;50.264;11.918;2023-03-17T09:06:32;5.18;;;3.10;;
40945;SDS011;55635;50.264;11.918;2023-03-17T09:09:13;5.57;;;3.05;;
40945;SDS011;55635;50.264;11.918;2023-03-17T09:11:54;3.70;;;2.65;;
40945;SDS011;55635;50.264;11.918;2023-03-17T09:14:35;3.42;;;2.70;;
40945;SDS011;55635;50.264;11.918;2023-03-17T09:17:16;3.40;;;2.65;;
40945;SDS011;55635;50.264;11.918;2023-03-17T09:19:57;2.78;;;2.55;;
40945;SDS011;55635;50.264;11.918;2023-03-17T09:22:38;4.63;;;2.70;;
40945;SDS011;55635;50.264;11.918;2023-03-17T09:25:20;5.63;;;2.58;;
40945;SDS011;55635;50.264;11.918;2023-03-17T09:28:01;5.78;;;2.80;;
40945;SDS011;55635;50.264;11.918;2023-03-17T09:30:43;3.08;;;2.53;;
40945;SDS011;55635;50.264;11.918;2023-03-17T09:33:24;4.38;;;2.90;;
40945;SDS011;55635;50.264;11.918;2023-03-17T09:36:06;4.95;;;2.40;;
40945;SDS011;55635;50.264;11.918;2023-03-17T09:38:49;4.75;;;2.40;;
40945;SDS011;55635;50.264;11.918;2023-03-17T09:47:38;2.60;;;1.90;;
40945;SDS011;55635;50.264;11.918;2023-03-17T09:56:42;3.85;;;2.10;;
40945;SDS011;55635;50.264;11.918;2023-03-17T09:59:31;2.92;;;2.53;;
40945;SDS011;55635;50.264;11.918;2023-03-17T10:02:20;2.97;;;2.35;;
40945;SDS011;55635;50.264;11.918;2023-03-17T10:05:18;4.22;;;1.95;;
40945;SDS011;55635;50.264;11.918;2023-03-17T10:08:12;3.17;;;1.92;;
40945;SDS011;55635;50.264;11.918;2023-03-17T10:11:05;2.33;;;1.90;;
40945;SDS011;55635;50.264;11.918;2023-03-17T10:14:29;4.00;;;2.08;;
40945;SDS011;55635;50.264;11.918;2023-03-17T10:17:40;5.07;;;2.20;;
40945;SDS011;55635;50.264;11.918;2023-03-17T10:20:29;5.82;;;2.35;;
40945;SDS011;55635;50.264;11.918;2023-03-17T10:23:16;3.83;;;2.45;;
40945;SDS011;55635;50.264;11.918;2023-03-17T10:26:11;3.22;;;2.35;;
40945;SDS011;55635;50.264;11.918;2023-03-17T10:29:09;2.45;;;2.05;;
40945;SDS011;55635;50.264;11.918;2023-03-17T10:31:57;6.13;;;2.33;;
40945;SDS011;55635;50.264;11.918;2023-03-17T10:34:38;2.72;;;1.95;;
40945;SDS011;55635;50.264;11.918;2023-03-17T10:37:21;3.25;;;2.38;;
40945;SDS011;55635;50.264;11.918;2023-03-17T10:40:04;2.28;;;1.92;;
40945;SDS011;55635;50.264;11.918;2023-03-17T10:42:53;3.08;;;2.22;;
40945;SDS011;55635;50.264;11.918;2023-03-17T10:45:45;3.35;;;2.05;;
40945;SDS011;55635;50.264;11.918;2023-03-17T10:48:39;4.05;;;2.42;;
40945;SDS011;55635;50.264;11.918;2023-03-17T10:51:23;2.20;;;2.00;;
40945;SDS011;55635;50.264;11.918;2023-03-17T10:54:15;2.60;;;1.60;;
40945;SDS011;55635;50.264;11.918;2023-03-17T10:56:59;4.78;;;2.05;;
40945;SDS011;55635;50.264;11.918;2023-03-17T10:59:52;4.70;;;2.10;;
40945;SDS011;55635;50.264;11.918;2023-03-17T11:02:35;3.58;;;1.98;;
40945;SDS011;55635;50.264;11.918;2023-03-17T11:05:26;3.17;;;1.73;;
40945;SDS011;55635;50.264;11.918;2023-03-17T11:08:14;2.55;;;1.70;;
40945;SDS011;55635;50.264;11.918;2023-03-17T11:10:58;2.97;;;1.85;;
40945;SDS011;55635;50.264;11.918;2023-03-17T11:13:38;4.13;;;2.00;;
40945;SDS011;55635;50.264;11.918;2023-03-17T11:16:21;4.05;;;2.47;;
40945;SDS011;55635;50.264;11.918;2023-03-17T11:19:04;2.53;;;1.83;;
40945;SDS011;55635;50.264;11.918;2023-03-17T11:21:59;4.05;;;1.92;;
40945;SDS011;55635;50.264;11.918;2023-03-17T11:27:35;2.97;;;2.00;;
40945;SDS011;55635;50.264;11.918;2023-03-17T11:30:54;4.20;;;1.80;;
40945;SDS011;55635;50.264;11.918;2023-03-17T11:34:13;4.63;;;2.30;;
40945;SDS011;55635;50.264;11.918;2023-03-17T11:37:17;3.70;;;2.42;;
40945;SDS011;55635;50.264;11.918;2023-03-17T11:56:00;2.20;;;1.40;;
40945;SDS011;55635;50.264;11.918;2023-03-17T11:58:49;3.35;;;2.10;;
40945;SDS011;55635;50.264;11.918;2023-03-17T12:01:43;4.25;;;2.20;;
40945;SDS011;55635;50.264;11.918;2023-03-17T12:04:35;2.92;;;1.80;;
40945;SDS011;55635;50.264;11.918;2023-03-17T12:07:54;3.17;;;1.45;;
40945;SDS011;55635;50.264;11.918;2023-03-17T12:10:43;1.85;;;1.30;;
40945;SDS011;55635;50.264;11.918;2023-03-17T12:13:33;2.20;;;1.70;;
40945;SDS011;55635;50.264;11.918;2023-03-17T12:16:40;4.13;;;1.92;;
40945;SDS011;55635;50.264;11.918;2023-03-17T12:19:36;2.92;;;1.80;;
40945;SDS011;55635;50.264;11.918;2023-03-17T12:26:18;1.80;;;1.52;;
40945;SDS011;55635;50.264;11.918;2023-03-17T12:29:10;3.67;;;2.00;;
40945;SDS011;55635;50.264;11.918;2023-03-17T12:32:23;4.75;;;1.60;;
40945;SDS011;55635;50.264;11.918;2023-03-17T12:35:37;1.95;;;1.55;;
40945;SDS011;55635;50.264;11.918;2023-03-17T12:38:22;1.77;;;1.48;;
40945;SDS011;55635;50.264;11.918;2023-03-17T12:53:48;1.90;;;1.67;;
40945;SDS011;55635;50.264;11.918;2023-03-17T12:56:31;2.60;;;1.52;;
40945;SDS011;55635;50.264;11.918;2023-03-17T12:59:20;5.25;;;2.30;;
40945;SDS011;55635;50.264;11.918;2023-03-17T13:02:23;3.22;;;1.42;;
40945;SDS011;55635;50.264;11.918;2023-03-17T13:05:17;3.75;;;1.85;;
40945;SDS011;55635;50.264;11.918;2023-03-17T13:08:12;4.80;;;2.17;;
40945;SDS011;55635;50.264;11.918;2023-03-17T13:11:13;3.63;;;1.55;;
40945;SDS011;55635;50.264;11.918;2023-03-17T13:14:26;2.63;;;1.70;;
40945;SDS011;55635;50.264;11.918;2023-03-17T13:17:29;2.75;;;1.73;;
40945;SDS011;55635;50.264;11.918;2023-03-17T13:20:16;5.40;;;1.83;;
40945;SDS011;55635;50.264;11.918;2023-03-17T13:23:00;3.55;;;1.70;;
40945;SDS011;55635;50.264;11.918;2023-03-17T13:25:51;2.00;;;1.67;;
40945;SDS011;55635;50.264;11.918;2023-03-17T13:34:14;3.20;;;1.52;;
40945;SDS011;55635;50.264;11.918;2023-03-17T13:52:01;3.78;;;1.42;;
40945;SDS011;55635;50.264;11.918;2023-03-17T13:54:48;4.13;;;1.30;;
40945;SDS011;55635;50.264;11.918;2023-03-17T14:00:58;3.67;;;1.80;;
40945;SDS011;55635;50.264;11.918;2023-03-17T14:03:47;3.70;;;1.50;;
40945;SDS011;55635;50.264;11.918;2023-03-17T14:06:30;3.22;;;1.55;;
40945;SDS011;55635;50.264;11.918;2023-03-17T14:09:29;2.45;;;1.45;;
40945;SDS011;55635;50.264;11.918;2023-03-17T14:12:22;1.90;;;1.48;;
40945;SDS011;55635;50.264;11.918;2023-03-17T14:15:18;1.60;;;1.50;;
40945;SDS011;55635;50.264;11.918;2023-03-17T14:18:38;3.22;;;1.90;;
40945;SDS011;55635;50.264;11.918;2023-03-17T14:21:28;2.50;;;1.50;;
40945;SDS011;55635;50.264;11.918;2023-03-17T14:24:19;2.45;;;1.80;;
40945;SDS011;55635;50.264;11.918;2023-03-17T14:27:04;2.75;;;1.60;;
40945;SDS011;55635;50.264;11.918;2023-03-17T14:29:49;2.88;;;1.58;;
40945;SDS011;55635;50.264;11.918;2023-03-17T14:32:31;3.00;;;1.70;;
40945;SDS011;55635;50.264;11.918;2023-03-17T14:35:12;2.50;;;1.63;;
40945;SDS011;55635;50.264;11.918;2023-03-17T14:37:53;3.70;;;1.70;;
40945;SDS011;55635;50.264;11.918;2023-03-17T14:40:35;2.53;;;1.40;;
40945;SDS011;55635;50.264;11.918;2023-03-17T14:43:18;3.33;;;1.92;;
40945;SDS011;55635;50.264;11.918;2023-03-17T14:46:00;2.50;;;1.90;;
40945;SDS011;55635;50.264;11.918;2023-03-17T14:48:48;2.72;;;2.10;;
40945;SDS011;55635;50.264;11.918;2023-03-17T14:51:51;3.75;;;2.10;;
40945;SDS011;55635;50.264;11.918;2023-03-17T14:54:33;4.95;;;2.00;;
40945;SDS011;55635;50.264;11.918;2023-03-17T14:57:14;2.88;;;1.80;;
40945;SDS011;55635;50.264;11.918;2023-03-17T15:00:00;2.28;;;1.88;;
40945;SDS011;55635;50.264;11.918;2023-03-17T15:02:58;2.70;;;1.75;;
40945;SDS011;55635;50.264;11.918;2023-03-17T15:05:44;2.72;;;1.73;;
40945;SDS011;55635;50.264;11.918;2023-03-17T15:08:44;2.60;;;1.85;;
40945;SDS011;55635;50.264;11.918;2023-03-17T15:11:26;2.92;;;2.00;;
40945;SDS011;55635;50.264;11.918;2023-03-17T15:14:18;3.78;;;1.63;;
40945;SDS011;55635;50.264;11.918;2023-03-17T15:17:16;2.25;;;1.60;;
40945;SDS011;55635;50.264;11.918;2023-03-17T15:20:13;2.63;;;2.05;;
40945;SDS011;55635;50.264;11.918;2023-03-17T15:23:35;3.10;;;1.83;;
40945;SDS011;55635;50.264;11.918;2023-03-17T15:26:18;2.55;;;1.90;;
40945;SDS011;55635;50.264;11.918;2023-03-17T15:29:02;2.90;;;1.85;;
40945;SDS011;55635;50.264;11.918;2023-03-17T15:31:43;3.15;;;2.05;;
40945;SDS011;55635;50.264;11.918;2023-03-17T15:34:24;2.47;;;2.05;;
40945;SDS011;55635;50.264;11.918;2023-03-17T15:37:13;3.63;;;2.10;;
40945;SDS011;55635;50.264;11.918;2023-03-17T15:40:00;4.03;;;1.92;;
40945;SDS011;55635;50.264;11.918;2023-03-17T15:42:42;3.65;;;1.90;;
40945;SDS011;55635;50.264;11.918;2023-03-17T15:45:24;3.25;;;2.25;;
40945;SDS011;55635;50.264;11.918;2023-03-17T15:48:08;3.20;;;2.17;;
40945;SDS011;55635;50.264;11.918;2023-03-17T15:51:04;4.60;;;2.72;;
40945;SDS011;55635;50.264;11.918;2023-03-17T15:53:45;2.90;;;2.30;;
40945;SDS011;55635;50.264;11.918;2023-03-17T15:56:26;2.25;;;1.85;;
40945;SDS011;55635;50.264;11.918;2023-03-17T15:59:08;6.82;;;2.15;;
40945;SDS011;55635;50.264;11.918;2023-03-17T16:01:49;3.63;;;2.28;;
40945;SDS011;55635;50.264;11.918;2023-03-17T16:04:30;5.45;;;2.58;;
40945;SDS011;55635;50.264;11.918;2023-03-17T16:07:11;4.45;;;2.15;;
40945;SDS011;55635;50.264;11.918;2023-03-17T16:09:52;2.97;;;2.40;;
40945;SDS011;55635;50.264;11.918;2023-03-17T16:12:33;2.95;;;2.40;;
40945;SDS011;55635;50.264;11.918;2023-03-17T16:15:15;4.43;;;2.40;;
40945;SDS011;55635;50.264;11.918;2023-03-17T16:18:14;3.72;;;2.30;;
40945;SDS011;55635;50.264;11.918;2023-03-17T16:21:06;7.40;;;2.95;;
40945;SDS011;55635;50.264;11.918;2023-03-17T16:23:48;3.58;;;2.50;;
40945;SDS011;55635;50.264;11.918;2023-03-17T16:26:29;3.70;;;2.30;;
40945;SDS011;55635;50.264;11.918;2023-03-17T16:29:13;3.95;;;2.30;;
40945;SDS011;55635;50.264;11.918;2023-03-17T16:31:55;3.10;;;2.47;;
40945;SDS011;55635;50.264;11.918;2023-03-17T16:34:36;5.10;;;2.88;;
40945;SDS011;55635;50.264;11.918;2023-03-17T16:37:17;3.22;;;2.45;;
40945;SDS011;55635;50.264;11.918;2023-03-17T16:39:57;3.08;;;2.72;;
40945;SDS011;55635;50.264;11.918;2023-03-17T16:42:38;4.18;;;2.30;;
40945;SDS011;55635;50.264;11.918;2023-03-17T16:48:08;3.22;;;2.10;;
40945;SDS011;55635;50.264;11.918;2023-03-17T16:50:54;2.85;;;2.33;;
40945;SDS011;55635;50.264;11.918;2023-03-17T16:53:35;6.53;;;2.80;;
40945;SDS011;55635;50.264;11.918;2023-03-17T16:56:17;3.45;;;2.30;;
40945;SDS011;55635;50.264;11.918;2023-03-17T16:59:01;4.25;;;2.60;;
40945;SDS011;55635;50.264;11.918;2023-03-17T17:01:42;3.67;;;2.28;;
40945;SDS011;55635;50.264;11.918;2023-03-17T17:04:23;4.75;;;2.08;;
40945;SDS011;55635;50.264;11.918;2023-03-17T17:07:04;3.00;;;2.25;;
40945;SDS011;55635;50.264;11.918;2023-03-17T17:09:45;3.85;;;2.25;;
40945;SDS011;55635;50.264;11.918;2023-03-17T17:12:25;4.93;;;2.85;;
40945;SDS011;55635;50.264;11.918;2023-03-17T17:15:07;3.58;;;2.17;;
40945;SDS011;55635;50.264;11.918;2023-03-17T17:17:54;3.15;;;2.63;;
40945;SDS011;55635;50.264;11.918;2023-03-17T17:20:39;5.00;;;2.67;;
40945;SDS011;55635;50.264;11.918;2023-03-17T17:23:22;2.60;;;2.28;;
40945;SDS011;55635;50.264;11.918;2023-03-17T17:26:05;5.10;;;2.50;;
40945;SDS011;55635;50.264;11.918;2023-03-17T17:28:46;5.10;;;2.55;;
40945;SDS011;55635;50.264;11.918;2023-03-17T17:31:27;7.95;;;2.40;;
40945;SDS011;55635;50.264;11.918;2023-03-17T17:34:08;2.83;;;2.33;;
40945;SDS011;55635;50.264;11.918;2023-03-17T17:36:52;4.88;;;2.70;;
40945;SDS011;55635;50.264;11.918;2023-03-17T17:39:34;4.95;;;2.20;;